sensor_id;sensor_type;location;lat;lon;timestamp;pressure;altitude;pressure_sealevel;temperature;humidity
11049;BME280;5577;42.706;23.160;2023-08-30T00:00:10;93362.53;;;18.89;100.00
11049;BME280;5577;42.706;23.160;2023-08-30T00:02:55;93368.16;;;18.95;100.00
11049;BME280;5577;42.706;23.160;2023-08-30T00:05:39;93339.00;;;18.61;100.00
11049;BME280;5577;42.706;23.160;2023-08-30T00:08:23;93358.16;;;18.79;100.00
11049;BME280;5577;42.706;23.160;2023-08-30T00:11:07;93343.69;;;18.93;100.00
11049;BME280;5577;42.706;23.160;2023-08-30T00:13:51;93337.13;;;18.78;100.00
11049;BME280;5577;42.706;23.160;2023-08-30T00:16:36;93356.75;;;18.91;100.00
11049;BME280;5577;42.706;23.160;2023-08-30T00:19:22;93360.63;;;18.90;100.00
11049;BME280;5577;42.706;23.160;2023-08-30T00:22:07;93336.25;;;18.65;100.00
11049;BME280;5577;42.706;23.160;2023-08-30T00:24:51;93351.53;;;18.84;100.00
11049;BME280;5577;42.706;23.160;2023-08-30T00:27:35;93326.41;;;18.58;100.00
11049;BME280;5577;42.706;23.160;2023-08-30T00:30:19;93345.69;;;18.53;100.00
11049;BME280;5577;42.706;23.160;2023-08-30T00:33:04;93355.72;;;18.49;100.00
11049;BME280;5577;42.706;23.160;2023-08-30T00:35:55;93360.66;;;18.70;100.00
11049;BME280;5577;42.706;23.160;2023-08-30T00:38:40;93365.81;;;18.61;100.00
11049;BME280;5577;42.706;23.160;2023-08-30T00:41:24;93308.22;;;18.11;100.00
11049;BME280;5577;42.706;23.160;2023-08-30T00:44:07;93362.16;;;18.32;100.00
11049;BME280;5577;42.706;23.160;2023-08-30T00:46:52;93384.13;;;18.47;100.00
11049;BME280;5577;42.706;23.160;2023-08-30T00:49:36;93392.63;;;18.42;100.00
11049;BME280;5577;42.706;23.160;2023-08-30T00:52:20;93387.75;;;18.37;100.00
11049;BME280;5577;42.706;23.160;2023-08-30T00:55:05;93390.53;;;18.30;100.00
11049;BME280;5577;42.706;23.160;2023-08-30T00:57:49;93387.78;;;18.33;100.00
11049;BME280;5577;42.706;23.160;2023-08-30T01:00:33;93402.09;;;18.46;100.00
11049;BME280;5577;42.706;23.160;2023-08-30T01:03:18;93396.97;;;18.36;100.00
11049;BME280;5577;42.706;23.160;2023-08-30T01:06:04;93392.44;;;18.10;100.00
11049;BME280;5577;42.706;23.160;2023-08-30T01:08:47;93395.25;;;18.22;100.00
11049;BME280;5577;42.706;23.160;2023-08-30T01:11:43;93385.22;;;18.26;100.00
11049;BME280;5577;42.706;23.160;2023-08-30T01:14:42;93392.66;;;18.19;100.00
11049;BME280;5577;42.706;23.160;2023-08-30T01:17:27;93400.75;;;18.15;100.00
11049;BME280;5577;42.706;23.160;2023-08-30T01:20:14;93404.59;;;18.14;100.00
11049;BME280;5577;42.706;23.160;2023-08-30T01:23:06;93412.09;;;18.23;100.00
11049;BME280;5577;42.706;23.160;2023-08-30T01:26:14;93400.34;;;18.17;100.00
11049;BME280;5577;42.706;23.160;2023-08-30T01:29:03;93409.00;;;18.24;100.00
11049;BME280;5577;42.706;23.160;2023-08-30T01:31:48;93374.59;;;17.80;100.00
11049;BME280;5577;42.706;23.160;2023-08-30T01:34:34;93417.41;;;18.03;100.00
11049;BME280;5577;42.706;23.160;2023-08-30T01:37:18;93362.84;;;17.74;100.00
11049;BME280;5577;42.706;23.160;2023-08-30T01:40:03;93409.59;;;18.12;100.00
11049;BME280;5577;42.706;23.160;2023-08-30T01:42:49;93386.63;;;18.15;100.00
11049;BME280;5577;42.706;23.160;2023-08-30T01:45:43;93403.56;;;18.28;100.00
11049;BME280;5577;42.706;23.160;2023-08-30T01:48:28;93379.66;;;17.98;100.00
11049;BME280;5577;42.706;23.160;2023-08-30T01:51:15;93402.81;;;18.08;100.00
11049;BME280;5577;42.706;23.160;2023-08-30T01:54:00;93398.75;;;18.19;100.00
11049;BME280;5577;42.706;23.160;2023-08-30T01:56:47;93410.78;;;18.31;100.00
11049;BME280;5577;42.706;23.160;2023-08-30T01:59:32;93406.94;;;18.32;100.00
11049;BME280;5577;42.706;23.160;2023-08-30T02:02:15;93383.97;;;18.11;100.00
11049;BME280;5577;42.706;23.160;2023-08-30T02:04:59;93388.38;;;18.02;100.00
11049;BME280;5577;42.706;23.160;2023-08-30T02:10:56;93389.66;;;17.94;100.00
11049;BME280;5577;42.706;23.160;2023-08-30T02:13:43;93387.31;;;17.96;100.00
11049;BME280;5577;42.706;23.160;2023-08-30T02:16:30;93391.78;;;18.02;100.00
11049;BME280;5577;42.706;23.160;2023-08-30T02:19:15;93381.47;;;17.81;100.00
11049;BME280;5577;42.706;23.160;2023-08-30T02:22:04;93383.13;;;17.95;100.00
11049;BME280;5577;42.706;23.160;2023-08-30T02:24:48;93394.25;;;17.93;100.00
11049;BME280;5577;42.706;23.160;2023-08-30T02:27:32;93392.91;;;17.82;100.00
11049;BME280;5577;42.706;23.160;2023-08-30T02:30:16;93378.56;;;17.72;100.00
11049;BME280;5577;42.706;23.160;2023-08-30T02:33:00;93389.38;;;17.88;100.00
11049;BME280;5577;42.706;23.160;2023-08-30T02:35:44;93380.81;;;17.74;100.00
11049;BME280;5577;42.706;23.160;2023-08-30T02:38:29;93378.16;;;17.74;100.00
11049;BME280;5577;42.706;23.160;2023-08-30T02:41:13;93386.75;;;17.85;100.00
11049;BME280;5577;42.706;23.160;2023-08-30T02:43:56;93374.59;;;17.80;100.00
11049;BME280;5577;42.706;23.160;2023-08-30T02:46:40;93360.75;;;17.62;100.00
11049;BME280;5577;42.706;23.160;2023-08-30T02:49:25;93366.34;;;17.71;100.00
11049;BME280;5577;42.706;23.160;2023-08-30T02:52:09;93375.06;;;17.75;100.00
11049;BME280;5577;42.706;23.160;2023-08-30T02:54:53;93367.84;;;17.72;100.00
11049;BME280;5577;42.706;23.160;2023-08-30T02:57:37;93337.72;;;17.45;100.00
11049;BME280;5577;42.706;23.160;2023-08-30T03:00:21;93376.53;;;17.57;100.00
11049;BME280;5577;42.706;23.160;2023-08-30T03:03:05;93370.63;;;17.42;100.00
11049;BME280;5577;42.706;23.160;2023-08-30T03:05:49;93378.94;;;17.48;100.00
11049;BME280;5577;42.706;23.160;2023-08-30T03:08:33;93388.53;;;17.45;100.00
11049;BME280;5577;42.706;23.160;2023-08-30T03:11:17;93372.25;;;17.36;100.00
11049;BME280;5577;42.706;23.160;2023-08-30T03:14:01;93341.69;;;17.10;100.00
11049;BME280;5577;42.706;23.160;2023-08-30T03:16:44;93390.38;;;17.52;100.00
11049;BME280;5577;42.706;23.160;2023-08-30T03:19:30;93312.69;;;16.82;100.00
11049;BME280;5577;42.706;23.160;2023-08-30T03:22:14;93282.97;;;16.50;100.00
11049;BME280;5577;42.706;23.160;2023-08-30T03:24:58;93273.56;;;16.39;100.00
11049;BME280;5577;42.706;23.160;2023-08-30T03:27:44;93291.84;;;16.70;100.00
11049;BME280;5577;42.706;23.160;2023-08-30T03:30:29;93335.72;;;16.99;100.00
11049;BME280;5577;42.706;23.160;2023-08-30T03:33:14;93335.06;;;16.92;100.00
11049;BME280;5577;42.706;23.160;2023-08-30T03:35:58;93306.78;;;16.68;100.00
11049;BME280;5577;42.706;23.160;2023-08-30T03:38:44;93315.34;;;16.82;100.00
11049;BME280;5577;42.706;23.160;2023-08-30T03:41:28;93354.88;;;16.94;100.00
11049;BME280;5577;42.706;23.160;2023-08-30T03:44:12;93342.78;;;16.86;100.00
11049;BME280;5577;42.706;23.160;2023-08-30T03:46:56;93279.91;;;16.52;100.00
11049;BME280;5577;42.706;23.160;2023-08-30T03:49:41;93346.34;;;17.03;100.00
11049;BME280;5577;42.706;23.160;2023-08-30T03:52:25;93354.09;;;16.97;100.00
11049;BME280;5577;42.706;23.160;2023-08-30T03:55:09;93359.84;;;16.96;100.00
11049;BME280;5577;42.706;23.160;2023-08-30T03:57:53;93354.88;;;16.94;100.00
11049;BME280;5577;42.706;23.160;2023-08-30T04:00:38;93364.63;;;16.81;100.00
11049;BME280;5577;42.706;23.160;2023-08-30T04:03:23;93362.78;;;16.75;100.00
11049;BME280;5577;42.706;23.160;2023-08-30T04:06:07;93355.19;;;17.00;100.00
11049;BME280;5577;42.706;23.160;2023-08-30T04:08:51;93358.31;;;17.22;100.00
11049;BME280;5577;42.706;23.160;2023-08-30T04:11:35;93350.34;;;17.41;100.00
11049;BME280;5577;42.706;23.160;2023-08-30T04:14:19;93357.78;;;17.57;100.00
11049;BME280;5577;42.706;23.160;2023-08-30T04:17:03;93379.44;;;17.66;100.00
11049;BME280;5577;42.706;23.160;2023-08-30T04:19:51;93388.09;;;17.73;100.00
11049;BME280;5577;42.706;23.160;2023-08-30T04:22:35;93454.50;;;17.59;100.00
11049;BME280;5577;42.706;23.160;2023-08-30T04:25:20;93447.38;;;17.49;100.00
11049;BME280;5577;42.706;23.160;2023-08-30T04:28:04;93436.19;;;17.27;100.00
11049;BME280;5577;42.706;23.160;2023-08-30T04:30:49;93393.38;;;17.00;100.00
11049;BME280;5577;42.706;23.160;2023-08-30T04:33:33;93440.84;;;16.93;100.00
11049;BME280;5577;42.706;23.160;2023-08-30T04:36:17;93448.84;;;16.93;100.00
11049;BME280;5577;42.706;23.160;2023-08-30T04:39:01;93442.31;;;16.97;100.00
11049;BME280;5577;42.706;23.160;2023-08-30T04:41:45;93481.97;;;16.72;100.00
11049;BME280;5577;42.706;23.160;2023-08-30T04:44:29;93484.78;;;16.58;100.00
11049;BME280;5577;42.706;23.160;2023-08-30T04:47:13;93504.00;;;16.46;100.00
11049;BME280;5577;42.706;23.160;2023-08-30T04:49:57;93497.28;;;16.28;100.00
11049;BME280;5577;42.706;23.160;2023-08-30T04:52:41;93440.81;;;16.29;100.00
11049;BME280;5577;42.706;23.160;2023-08-30T04:55:28;93444.72;;;16.21;100.00
11049;BME280;5577;42.706;23.160;2023-08-30T04:58:12;93437.13;;;16.16;100.00
11049;BME280;5577;42.706;23.160;2023-08-30T05:00:56;93460.53;;;16.39;100.00
11049;BME280;5577;42.706;23.160;2023-08-30T05:03:41;93458.22;;;16.44;100.00
11049;BME280;5577;42.706;23.160;2023-08-30T05:06:26;93454.03;;;16.40;100.00
11049;BME280;5577;42.706;23.160;2023-08-30T05:09:10;93440.72;;;16.36;100.00
11049;BME280;5577;42.706;23.160;2023-08-30T05:11:54;93453.63;;;16.41;100.00
11049;BME280;5577;42.706;23.160;2023-08-30T05:14:38;93458.22;;;16.44;100.00
11049;BME280;5577;42.706;23.160;2023-08-30T05:17:22;93448.63;;;16.50;100.00
11049;BME280;5577;42.706;23.160;2023-08-30T05:20:07;93451.53;;;16.63;100.00
11049;BME280;5577;42.706;23.160;2023-08-30T05:33:29;93431.44;;;17.65;100.00
11049;BME280;5577;42.706;23.160;2023-08-30T05:36:14;93444.44;;;17.89;100.00
11049;BME280;5577;42.706;23.160;2023-08-30T05:38:58;93408.69;;;17.76;100.00
11049;BME280;5577;42.706;23.160;2023-08-30T05:41:41;93447.22;;;18.05;100.00
11049;BME280;5577;42.706;23.160;2023-08-30T05:44:25;93423.53;;;18.04;100.00
11049;BME280;5577;42.706;23.160;2023-08-30T05:47:09;93447.53;;;18.30;100.00
11049;BME280;5577;42.706;23.160;2023-08-30T05:49:58;93440.16;;;18.38;100.00
11049;BME280;5577;42.706;23.160;2023-08-30T05:52:42;93424.84;;;18.38;100.00
11049;BME280;5577;42.706;23.160;2023-08-30T05:55:28;93446.44;;;18.70;100.00
11049;BME280;5577;42.706;23.160;2023-08-30T05:58:12;93437.31;;;18.68;100.00
11049;BME280;5577;42.706;23.160;2023-08-30T06:00:58;93444.72;;;18.80;100.00
11049;BME280;5577;42.706;23.160;2023-08-30T06:03:44;93417.22;;;18.76;100.00
11049;BME280;5577;42.706;23.160;2023-08-30T06:06:29;93438.59;;;18.99;100.00
11049;BME280;5577;42.706;23.160;2023-08-30T06:09:13;93448.00;;;19.07;100.00
11049;BME280;5577;42.706;23.160;2023-08-30T06:11:57;93435.84;;;19.02;100.00
11049;BME280;5577;42.706;23.160;2023-08-30T06:14:42;93436.66;;;18.99;100.00
11049;BME280;5577;42.706;23.160;2023-08-30T06:17:27;93433.69;;;19.13;100.00
11049;BME280;5577;42.706;23.160;2023-08-30T06:20:11;93376.91;;;18.79;100.00
11049;BME280;5577;42.706;23.160;2023-08-30T06:22:57;93392.28;;;18.79;100.00
11049;BME280;5577;42.706;23.160;2023-08-30T06:37:15;93410.03;;;19.60;100.00
11049;BME280;5577;42.706;23.160;2023-08-30T06:40:00;93427.91;;;19.83;100.00
11049;BME280;5577;42.706;23.160;2023-08-30T06:42:46;93401.56;;;19.61;100.00
11049;BME280;5577;42.706;23.160;2023-08-30T06:45:30;93429.66;;;19.89;100.00
11049;BME280;5577;42.706;23.160;2023-08-30T06:48:14;93421.97;;;19.75;100.00
11049;BME280;5577;42.706;23.160;2023-08-30T06:50:58;93427.66;;;19.61;100.00
11049;BME280;5577;42.706;23.160;2023-08-30T06:53:43;93405.16;;;19.55;100.00
11049;BME280;5577;42.706;23.160;2023-08-30T06:56:27;93423.03;;;19.77;100.00
11049;BME280;5577;42.706;23.160;2023-08-30T06:59:11;93417.31;;;19.92;100.00
11049;BME280;5577;42.706;23.160;2023-08-30T07:12:48;93369.97;;;20.83;100.00
11049;BME280;5577;42.706;23.160;2023-08-30T07:15:32;93418.41;;;21.24;100.00
11049;BME280;5577;42.706;23.160;2023-08-30T07:18:16;93380.69;;;21.12;100.00
11049;BME280;5577;42.706;23.160;2023-08-30T07:21:00;93394.81;;;21.28;100.00
11049;BME280;5577;42.706;23.160;2023-08-30T07:23:44;93407.63;;;21.24;100.00
11049;BME280;5577;42.706;23.160;2023-08-30T07:26:28;93406.44;;;21.13;100.00
11049;BME280;5577;42.706;23.160;2023-08-30T07:29:12;93398.88;;;21.08;100.00
11049;BME280;5577;42.706;23.160;2023-08-30T07:31:56;93393.53;;;21.20;100.00
11049;BME280;5577;42.706;23.160;2023-08-30T07:34:40;93403.09;;;21.34;100.00
11049;BME280;5577;42.706;23.160;2023-08-30T07:37:25;93395.53;;;21.29;100.00
11049;BME280;5577;42.706;23.160;2023-08-30T07:40:10;93402.03;;;21.31;100.00
11049;BME280;5577;42.706;23.160;2023-08-30T07:42:53;93304.09;;;20.63;100.00
11049;BME280;5577;42.706;23.160;2023-08-30T07:45:37;93362.47;;;20.91;100.00
11049;BME280;5577;42.706;23.160;2023-08-30T07:48:21;93367.25;;;21.12;100.00
11049;BME280;5577;42.706;23.160;2023-08-30T07:51:06;93362.50;;;21.28;100.00
11049;BME280;5577;42.706;23.160;2023-08-30T07:53:50;93386.84;;;21.62;100.00
11049;BME280;5577;42.706;23.160;2023-08-30T07:56:33;93390.19;;;21.79;100.00
11049;BME280;5577;42.706;23.160;2023-08-30T07:59:17;93402.22;;;21.62;100.00
11049;BME280;5577;42.706;23.160;2023-08-30T08:02:05;93365.97;;;21.41;100.00
11049;BME280;5577;42.706;23.160;2023-08-30T08:04:51;93373.13;;;21.57;100.00
11049;BME280;5577;42.706;23.160;2023-08-30T08:07:38;93396.44;;;21.76;100.00
11049;BME280;5577;42.706;23.160;2023-08-30T08:10:23;93387.47;;;21.91;100.00
11049;BME280;5577;42.706;23.160;2023-08-30T08:13:07;93391.28;;;22.37;100.00
11049;BME280;5577;42.706;23.160;2023-08-30T08:15:51;93384.50;;;22.45;100.00
11049;BME280;5577;42.706;23.160;2023-08-30T08:18:35;93391.66;;;22.82;100.00
11049;BME280;5577;42.706;23.160;2023-08-30T08:21:19;93402.66;;;23.18;100.00
11049;BME280;5577;42.706;23.160;2023-08-30T08:24:03;93328.66;;;22.76;100.00
11049;BME280;5577;42.706;23.160;2023-08-30T08:26:47;93391.63;;;23.56;100.00
11049;BME280;5577;42.706;23.160;2023-08-30T08:29:31;93393.84;;;23.48;100.00
11049;BME280;5577;42.706;23.160;2023-08-30T08:32:15;93408.41;;;23.51;100.00
11049;BME280;5577;42.706;23.160;2023-08-30T08:34:59;93381.13;;;23.27;100.00
11049;BME280;5577;42.706;23.160;2023-08-30T08:37:43;93404.63;;;23.48;100.00
11049;BME280;5577;42.706;23.160;2023-08-30T08:40:28;93402.78;;;23.36;100.00
11049;BME280;5577;42.706;23.160;2023-08-30T08:43:12;93400.97;;;23.33;100.00
11049;BME280;5577;42.706;23.160;2023-08-30T08:45:59;93400.34;;;23.29;100.00
11049;BME280;5577;42.706;23.160;2023-08-30T08:48:44;93380.63;;;23.50;100.00
11049;BME280;5577;42.706;23.160;2023-08-30T08:51:32;93390.16;;;23.73;100.00
11049;BME280;5577;42.706;23.160;2023-08-30T08:54:18;93375.31;;;23.77;100.00
11049;BME280;5577;42.706;23.160;2023-08-30T08:57:02;93376.22;;;23.92;100.00
11049;BME280;5577;42.706;23.160;2023-08-30T08:59:47;93368.66;;;24.27;100.00
11049;BME280;5577;42.706;23.160;2023-08-30T09:02:31;93347.31;;;24.38;100.00
11049;BME280;5577;42.706;23.160;2023-08-30T09:05:15;93369.41;;;24.81;100.00
11049;BME280;5577;42.706;23.160;2023-08-30T09:08:00;93359.72;;;25.08;100.00
11049;BME280;5577;42.706;23.160;2023-08-30T09:10:45;93361.72;;;25.49;100.00
11049;BME280;5577;42.706;23.160;2023-08-30T09:13:33;93373.50;;;25.69;100.00
11049;BME280;5577;42.706;23.160;2023-08-30T09:16:17;93352.16;;;25.86;100.00
11049;BME280;5577;42.706;23.160;2023-08-30T09:19:03;93362.59;;;26.34;100.00
11049;BME280;5577;42.706;23.160;2023-08-30T09:21:53;93365.81;;;26.47;100.00
11049;BME280;5577;42.706;23.160;2023-08-30T09:24:41;93379.34;;;26.33;100.00
11049;BME280;5577;42.706;23.160;2023-08-30T09:27:32;93363.53;;;26.69;96.80
11049;BME280;5577;42.706;23.160;2023-08-30T09:30:23;93367.84;;;26.76;82.37
11049;BME280;5577;42.706;23.160;2023-08-30T09:33:08;93356.25;;;26.52;88.10
11049;BME280;5577;42.706;23.160;2023-08-30T09:35:52;93361.66;;;26.61;86.58
11049;BME280;5577;42.706;23.160;2023-08-30T09:38:36;93379.56;;;26.82;86.97
11049;BME280;5577;42.706;23.160;2023-08-30T09:41:20;93365.16;;;26.90;89.13
11049;BME280;5577;42.706;23.160;2023-08-30T09:44:11;93373.59;;;27.36;81.06
11049;BME280;5577;42.706;23.160;2023-08-30T09:46:55;93369.75;;;27.42;80.69
11049;BME280;5577;42.706;23.160;2023-08-30T09:49:44;93360.13;;;27.76;78.68
11049;BME280;5577;42.706;23.160;2023-08-30T09:52:32;93364.13;;;27.46;77.96
11049;BME280;5577;42.706;23.160;2023-08-30T09:55:18;93366.09;;;27.16;80.20
11049;BME280;5577;42.706;23.160;2023-08-30T09:58:03;93357.13;;;27.25;81.84
11049;BME280;5577;42.706;23.160;2023-08-30T10:00:48;93339.28;;;26.66;74.64
11049;BME280;5577;42.706;23.160;2023-08-30T10:03:34;93348.34;;;26.63;84.30
11049;BME280;5577;42.706;23.160;2023-08-30T10:06:18;93303.91;;;26.89;83.81
11049;BME280;5577;42.706;23.160;2023-08-30T10:09:03;93345.09;;;27.95;74.49
11049;BME280;5577;42.706;23.160;2023-08-30T10:11:49;93344.63;;;28.57;72.37
11049;BME280;5577;42.706;23.160;2023-08-30T10:14:32;93354.31;;;28.83;68.68
11049;BME280;5577;42.706;23.160;2023-08-30T10:17:18;93346.38;;;29.05;64.92
11049;BME280;5577;42.706;23.160;2023-08-30T10:20:05;93335.00;;;29.38;62.45
11049;BME280;5577;42.706;23.160;2023-08-30T10:22:53;93331.47;;;29.99;63.29
11049;BME280;5577;42.706;23.160;2023-08-30T10:25:39;93331.22;;;30.45;61.85
11049;BME280;5577;42.706;23.160;2023-08-30T10:28:25;93327.09;;;30.83;57.23
11049;BME280;5577;42.706;23.160;2023-08-30T10:31:10;93329.59;;;30.92;56.90
11049;BME280;5577;42.706;23.160;2023-08-30T10:33:54;93330.22;;;30.43;62.06
11049;BME280;5577;42.706;23.160;2023-08-30T10:36:39;93304.75;;;30.79;55.65
11049;BME280;5577;42.706;23.160;2023-08-30T10:39:37;93333.00;;;30.65;53.54
11049;BME280;5577;42.706;23.160;2023-08-30T10:42:23;93330.78;;;30.69;55.50
11049;BME280;5577;42.706;23.160;2023-08-30T10:45:08;93315.97;;;31.03;54.53
11049;BME280;5577;42.706;23.160;2023-08-30T10:47:54;93321.97;;;31.45;51.92
11049;BME280;5577;42.706;23.160;2023-08-30T10:50:38;93321.69;;;31.82;52.92
11049;BME280;5577;42.706;23.160;2023-08-30T10:53:29;93315.75;;;32.57;50.68
11049;BME280;5577;42.706;23.160;2023-08-30T10:56:13;93309.06;;;32.99;48.85
11049;BME280;5577;42.706;23.160;2023-08-30T10:58:57;93317.78;;;32.97;47.32
11049;BME280;5577;42.706;23.160;2023-08-30T11:01:43;93320.66;;;31.96;42.99
11049;BME280;5577;42.706;23.160;2023-08-30T11:04:28;93324.63;;;32.00;43.54
11049;BME280;5577;42.706;23.160;2023-08-30T11:07:12;93318.69;;;31.91;44.00
11049;BME280;5577;42.706;23.160;2023-08-30T11:09:57;93248.53;;;31.88;45.25
11049;BME280;5577;42.706;23.160;2023-08-30T11:12:42;93313.09;;;32.35;44.57
11049;BME280;5577;42.706;23.160;2023-08-30T11:15:26;93312.22;;;32.62;40.28
11049;BME280;5577;42.706;23.160;2023-08-30T11:18:10;93308.47;;;31.91;39.56
11049;BME280;5577;42.706;23.160;2023-08-30T11:21:01;93310.03;;;31.26;39.83
11049;BME280;5577;42.706;23.160;2023-08-30T11:23:45;93301.72;;;30.07;44.63
11049;BME280;5577;42.706;23.160;2023-08-30T11:26:29;93301.69;;;30.55;44.72
11049;BME280;5577;42.706;23.160;2023-08-30T11:29:15;93308.13;;;30.52;42.93
11049;BME280;5577;42.706;23.160;2023-08-30T11:31:59;93297.94;;;30.41;42.64
11049;BME280;5577;42.706;23.160;2023-08-30T11:34:43;93290.75;;;30.49;43.92
11049;BME280;5577;42.706;23.160;2023-08-30T11:37:29;93285.38;;;30.99;44.32
11049;BME280;5577;42.706;23.160;2023-08-30T11:40:13;93276.22;;;31.35;45.14
11049;BME280;5577;42.706;23.160;2023-08-30T11:42:57;93269.94;;;31.62;43.92
11049;BME280;5577;42.706;23.160;2023-08-30T11:45:42;93279.63;;;31.85;41.74
11049;BME280;5577;42.706;23.160;2023-08-30T11:48:26;93272.44;;;31.71;43.41
11049;BME280;5577;42.706;23.160;2023-08-30T11:51:11;93278.34;;;31.97;42.60
11049;BME280;5577;42.706;23.160;2023-08-30T11:53:56;93280.38;;;31.91;39.25
11049;BME280;5577;42.706;23.160;2023-08-30T11:56:41;93260.31;;;31.39;39.69
11049;BME280;5577;42.706;23.160;2023-08-30T11:59:26;93271.72;;;31.48;41.49
11049;BME280;5577;42.706;23.160;2023-08-30T12:02:12;93258.78;;;31.54;42.71
11049;BME280;5577;42.706;23.160;2023-08-30T12:04:57;93273.38;;;31.90;39.94
11049;BME280;5577;42.706;23.160;2023-08-30T12:07:45;93264.81;;;32.21;40.92
11049;BME280;5577;42.706;23.160;2023-08-30T12:10:29;93265.34;;;32.14;35.78
11049;BME280;5577;42.706;23.160;2023-08-30T12:13:30;93253.72;;;32.02;34.75
11049;BME280;5577;42.706;23.160;2023-08-30T12:16:16;93246.97;;;32.03;37.53
11049;BME280;5577;42.706;23.160;2023-08-30T12:19:10;93255.91;;;32.09;36.17
11049;BME280;5577;42.706;23.160;2023-08-30T12:21:56;93255.00;;;31.85;37.19
11049;BME280;5577;42.706;23.160;2023-08-30T12:24:44;93237.81;;;31.95;37.07
11049;BME280;5577;42.706;23.160;2023-08-30T12:27:28;93238.75;;;32.03;35.76
11049;BME280;5577;42.706;23.160;2023-08-30T12:30:14;93236.56;;;31.91;36.77
11049;BME280;5577;42.706;23.160;2023-08-30T12:33:01;93169.22;;;31.60;35.70
11049;BME280;5577;42.706;23.160;2023-08-30T12:35:47;93237.19;;;32.24;35.90
11049;BME280;5577;42.706;23.160;2023-08-30T12:38:31;93249.75;;;31.92;34.14
11049;BME280;5577;42.706;23.160;2023-08-30T12:41:16;93237.09;;;31.73;34.61
11049;BME280;5577;42.706;23.160;2023-08-30T12:44:00;93235.13;;;31.68;34.91
11049;BME280;5577;42.706;23.160;2023-08-30T12:46:45;93212.31;;;31.43;35.52
11049;BME280;5577;42.706;23.160;2023-08-30T12:49:29;93238.88;;;31.48;37.14
11049;BME280;5577;42.706;23.160;2023-08-30T12:52:13;93218.28;;;31.36;35.60
11049;BME280;5577;42.706;23.160;2023-08-30T12:54:57;93225.69;;;31.52;35.61
11049;BME280;5577;42.706;23.160;2023-08-30T12:57:41;93224.47;;;31.48;33.21
11049;BME280;5577;42.706;23.160;2023-08-30T13:00:25;93229.94;;;31.42;36.28
11049;BME280;5577;42.706;23.160;2023-08-30T13:03:09;93200.38;;;31.30;34.89
11049;BME280;5577;42.706;23.160;2023-08-30T13:05:53;93219.50;;;31.46;36.76
11049;BME280;5577;42.706;23.160;2023-08-30T13:08:37;93201.34;;;31.21;35.31
11049;BME280;5577;42.706;23.160;2023-08-30T13:11:21;93210.84;;;30.76;36.09
11049;BME280;5577;42.706;23.160;2023-08-30T13:14:05;93196.16;;;30.74;37.85
11049;BME280;5577;42.706;23.160;2023-08-30T13:16:49;93218.78;;;31.07;35.54
11049;BME280;5577;42.706;23.160;2023-08-30T13:19:33;93181.50;;;30.88;35.22
11049;BME280;5577;42.706;23.160;2023-08-30T13:22:17;93220.53;;;30.88;35.86
11049;BME280;5577;42.706;23.160;2023-08-30T13:25:02;93218.00;;;30.63;35.45
11049;BME280;5577;42.706;23.160;2023-08-30T13:27:47;93231.69;;;30.85;34.81
11049;BME280;5577;42.706;23.160;2023-08-30T13:30:31;93218.28;;;30.87;35.82
11049;BME280;5577;42.706;23.160;2023-08-30T13:33:17;93185.47;;;31.03;36.58
11049;BME280;5577;42.706;23.160;2023-08-30T13:36:01;93231.22;;;31.08;34.69
11049;BME280;5577;42.706;23.160;2023-08-30T13:38:47;93222.75;;;30.79;35.37
11049;BME280;5577;42.706;23.160;2023-08-30T13:41:31;93225.50;;;30.79;35.72
11049;BME280;5577;42.706;23.160;2023-08-30T13:44:15;93225.25;;;31.10;36.36
11049;BME280;5577;42.706;23.160;2023-08-30T13:47:00;93243.13;;;31.16;35.71
11049;BME280;5577;42.706;23.160;2023-08-30T13:49:44;93222.47;;;30.60;34.50
11049;BME280;5577;42.706;23.160;2023-08-30T13:52:28;93210.53;;;30.41;34.82
11049;BME280;5577;42.706;23.160;2023-08-30T13:55:14;93234.88;;;30.61;35.67
11049;BME280;5577;42.706;23.160;2023-08-30T13:57:58;93231.91;;;30.70;37.01
11049;BME280;5577;42.706;23.160;2023-08-30T14:00:43;93233.44;;;30.93;34.89
11049;BME280;5577;42.706;23.160;2023-08-30T14:03:27;93229.66;;;30.52;36.22
11049;BME280;5577;42.706;23.160;2023-08-30T14:06:11;93119.00;;;29.65;37.61
11049;BME280;5577;42.706;23.160;2023-08-30T14:08:56;93235.91;;;30.64;37.36
11049;BME280;5577;42.706;23.160;2023-08-30T14:11:40;93236.16;;;30.82;34.96
11049;BME280;5577;42.706;23.160;2023-08-30T14:14:25;93241.13;;;30.78;34.25
11049;BME280;5577;42.706;23.160;2023-08-30T14:17:09;93233.66;;;30.62;34.92
11049;BME280;5577;42.706;23.160;2023-08-30T14:19:53;93235.31;;;30.27;36.55
11049;BME280;5577;42.706;23.160;2023-08-30T14:22:37;93242.75;;;30.26;36.23
11049;BME280;5577;42.706;23.160;2023-08-30T14:25:21;93242.19;;;30.11;38.62
11049;BME280;5577;42.706;23.160;2023-08-30T14:28:05;93253.31;;;30.02;36.53
11049;BME280;5577;42.706;23.160;2023-08-30T14:30:49;93245.94;;;29.60;39.66
11049;BME280;5577;42.706;23.160;2023-08-30T14:33:33;93254.19;;;29.40;46.41
11049;BME280;5577;42.706;23.160;2023-08-30T14:36:17;93250.66;;;28.98;47.82
11049;BME280;5577;42.706;23.160;2023-08-30T14:39:01;93258.91;;;29.03;49.45
11049;BME280;5577;42.706;23.160;2023-08-30T14:41:47;93261.38;;;28.76;51.33
11049;BME280;5577;42.706;23.160;2023-08-30T14:44:30;93252.53;;;28.35;52.29
11049;BME280;5577;42.706;23.160;2023-08-30T14:47:14;93270.03;;;28.49;53.45
11049;BME280;5577;42.706;23.160;2023-08-30T14:49:58;93273.28;;;28.07;55.01
11049;BME280;5577;42.706;23.160;2023-08-30T14:52:45;93261.94;;;27.74;55.67
11049;BME280;5577;42.706;23.160;2023-08-30T14:55:29;93278.13;;;27.63;55.00
11049;BME280;5577;42.706;23.160;2023-08-30T14:58:13;93281.31;;;27.27;55.78
11049;BME280;5577;42.706;23.160;2023-08-30T15:00:57;93271.97;;;26.99;57.35
11049;BME280;5577;42.706;23.160;2023-08-30T15:03:41;93283.03;;;26.81;57.79